sensor_id;sensor_type;location;lat;lon;timestamp;P1;durP1;ratioP1;P2;durP2;ratioP2
21833;SDS011;11079;51.092;3.458;2023-03-25T00:00:48;8.07;;;1.65;;
21833;SDS011;11079;51.092;3.458;2023-03-25T00:03:17;7.53;;;1.85;;
21833;SDS011;11079;51.092;3.458;2023-03-25T00:05:43;9.15;;;1.90;;
21833;SDS011;11079;51.092;3.458;2023-03-25T00:08:09;6.90;;;1.63;;
21833;SDS011;11079;51.092;3.458;2023-03-25T00:10:35;11.98;;;2.00;;
21833;SDS011;11079;51.092;3.458;2023-03-25T00:13:00;7.05;;;1.70;;
21833;SDS011;11079;51.092;3.458;2023-03-25T00:15:29;7.35;;;1.92;;
21833;SDS011;11079;51.092;3.458;2023-03-25T00:17:58;9.32;;;2.33;;
21833;SDS011;11079;51.092;3.458;2023-03-25T00:20:24;9.40;;;3.20;;
21833;SDS011;11079;51.092;3.458;2023-03-25T00:22:51;10.25;;;2.00;;
21833;SDS011;11079;51.092;3.458;2023-03-25T00:25:18;9.30;;;1.67;;
21833;SDS011;11079;51.092;3.458;2023-03-25T00:27:45;8.15;;;2.53;;
21833;SDS011;11079;51.092;3.458;2023-03-25T00:30:16;7.95;;;1.83;;
21833;SDS011;11079;51.092;3.458;2023-03-25T00:32:43;7.97;;;1.80;;
21833;SDS011;11079;51.092;3.458;2023-03-25T00:35:16;8.98;;;2.22;;
21833;SDS011;11079;51.092;3.458;2023-03-25T00:37:43;8.48;;;1.85;;
21833;SDS011;11079;51.092;3.458;2023-03-25T00:40:09;8.68;;;1.85;;
21833;SDS011;11079;51.092;3.458;2023-03-25T00:42:35;11.27;;;2.63;;
21833;SDS011;11079;51.092;3.458;2023-03-25T00:45:02;8.25;;;2.10;;
21833;SDS011;11079;51.092;3.458;2023-03-25T00:47:27;10.30;;;1.90;;
21833;SDS011;11079;51.092;3.458;2023-03-25T00:49:53;7.50;;;2.03;;
21833;SDS011;11079;51.092;3.458;2023-03-25T00:52:18;9.35;;;2.15;;
21833;SDS011;11079;51.092;3.458;2023-03-25T00:54:46;9.05;;;2.08;;
21833;SDS011;11079;51.092;3.458;2023-03-25T00:57:12;10.02;;;2.45;;
21833;SDS011;11079;51.092;3.458;2023-03-25T00:59:38;10.45;;;3.50;;
21833;SDS011;11079;51.092;3.458;2023-03-25T01:02:03;13.38;;;3.10;;
21833;SDS011;11079;51.092;3.458;2023-03-25T01:04:30;11.43;;;2.50;;
21833;SDS011;11079;51.092;3.458;2023-03-25T01:06:57;20.25;;;3.55;;
21833;SDS011;11079;51.092;3.458;2023-03-25T01:09:22;10.57;;;2.50;;
21833;SDS011;11079;51.092;3.458;2023-03-25T01:11:48;18.40;;;3.13;;
21833;SDS011;11079;51.092;3.458;2023-03-25T01:14:15;11.48;;;2.72;;
21833;SDS011;11079;51.092;3.458;2023-03-25T01:16:43;8.85;;;2.35;;
21833;SDS011;11079;51.092;3.458;2023-03-25T01:19:09;17.67;;;3.05;;
21833;SDS011;11079;51.092;3.458;2023-03-25T01:21:36;13.32;;;2.90;;
21833;SDS011;11079;51.092;3.458;2023-03-25T01:24:02;13.88;;;2.95;;
21833;SDS011;11079;51.092;3.458;2023-03-25T01:26:29;11.35;;;2.35;;
21833;SDS011;11079;51.092;3.458;2023-03-25T01:28:55;14.60;;;3.47;;
21833;SDS011;11079;51.092;3.458;2023-03-25T01:31:21;18.42;;;3.60;;
21833;SDS011;11079;51.092;3.458;2023-03-25T01:33:47;12.40;;;3.28;;
21833;SDS011;11079;51.092;3.458;2023-03-25T01:36:13;17.95;;;3.40;;
21833;SDS011;11079;51.092;3.458;2023-03-25T01:38:40;18.75;;;4.72;;
21833;SDS011;11079;51.092;3.458;2023-03-25T01:41:06;16.25;;;3.35;;
21833;SDS011;11079;51.092;3.458;2023-03-25T01:43:33;24.35;;;4.38;;
21833;SDS011;11079;51.092;3.458;2023-03-25T01:45:59;21.98;;;3.22;;
21833;SDS011;11079;51.092;3.458;2023-03-25T01:51:01;17.95;;;3.88;;
21833;SDS011;11079;51.092;3.458;2023-03-25T01:53:34;14.27;;;3.50;;
21833;SDS011;11079;51.092;3.458;2023-03-25T01:56:00;14.07;;;2.83;;
21833;SDS011;11079;51.092;3.458;2023-03-25T01:58:29;14.00;;;3.05;;
21833;SDS011;11079;51.092;3.458;2023-03-25T02:00:56;15.65;;;3.58;;
21833;SDS011;11079;51.092;3.458;2023-03-25T02:03:22;16.02;;;3.35;;
21833;SDS011;11079;51.092;3.458;2023-03-25T02:06:11;14.35;;;2.88;;
21833;SDS011;11079;51.092;3.458;2023-03-25T02:08:39;19.40;;;3.17;;
21833;SDS011;11079;51.092;3.458;2023-03-25T02:11:06;15.88;;;4.05;;
21833;SDS011;11079;51.092;3.458;2023-03-25T02:13:34;13.95;;;3.85;;
21833;SDS011;11079;51.092;3.458;2023-03-25T02:18:47;18.05;;;3.97;;
21833;SDS011;11079;51.092;3.458;2023-03-25T02:24:17;19.98;;;3.33;;
21833;SDS011;11079;51.092;3.458;2023-03-25T02:27:11;18.58;;;4.18;;
21833;SDS011;11079;51.092;3.458;2023-03-25T02:30:12;20.42;;;3.58;;
21833;SDS011;11079;51.092;3.458;2023-03-25T02:41:00;16.48;;;3.40;;
21833;SDS011;11079;51.092;3.458;2023-03-25T02:46:15;9.65;;;2.78;;
21833;SDS011;11079;51.092;3.458;2023-03-25T02:51:53;12.70;;;3.05;;
21833;SDS011;11079;51.092;3.458;2023-03-25T02:54:25;17.95;;;3.55;;
21833;SDS011;11079;51.092;3.458;2023-03-25T02:56:54;14.77;;;3.35;;
21833;SDS011;11079;51.092;3.458;2023-03-25T02:59:23;13.43;;;2.50;;
21833;SDS011;11079;51.092;3.458;2023-03-25T03:01:54;16.63;;;3.75;;
21833;SDS011;11079;51.092;3.458;2023-03-25T03:04:22;9.70;;;2.83;;
21833;SDS011;11079;51.092;3.458;2023-03-25T03:06:50;11.73;;;2.30;;
21833;SDS011;11079;51.092;3.458;2023-03-25T03:09:30;13.65;;;2.88;;
21833;SDS011;11079;51.092;3.458;2023-03-25T03:14:48;10.15;;;2.83;;
21833;SDS011;11079;51.092;3.458;2023-03-25T03:17:20;14.80;;;3.17;;
21833;SDS011;11079;51.092;3.458;2023-03-25T03:19:58;7.63;;;1.80;;
21833;SDS011;11079;51.092;3.458;2023-03-25T03:22:44;9.95;;;2.15;;
21833;SDS011;11079;51.092;3.458;2023-03-25T03:25:19;11.88;;;2.70;;
21833;SDS011;11079;51.092;3.458;2023-03-25T03:27:54;14.60;;;2.97;;
21833;SDS011;11079;51.092;3.458;2023-03-25T03:30:45;13.63;;;3.00;;
21833;SDS011;11079;51.092;3.458;2023-03-25T03:33:25;6.50;;;1.80;;
21833;SDS011;11079;51.092;3.458;2023-03-25T03:36:15;7.72;;;2.42;;
21833;SDS011;11079;51.092;3.458;2023-03-25T03:38:53;11.52;;;2.30;;
21833;SDS011;11079;51.092;3.458;2023-03-25T03:41:27;11.20;;;2.38;;
21833;SDS011;11079;51.092;3.458;2023-03-25T03:43:58;10.80;;;1.92;;
21833;SDS011;11079;51.092;3.458;2023-03-25T03:48:59;11.77;;;2.15;;
21833;SDS011;11079;51.092;3.458;2023-03-25T03:51:28;9.68;;;1.67;;
21833;SDS011;11079;51.092;3.458;2023-03-25T03:54:12;9.68;;;2.08;;
21833;SDS011;11079;51.092;3.458;2023-03-25T03:56:46;9.85;;;1.92;;
21833;SDS011;11079;51.092;3.458;2023-03-25T04:01:54;5.95;;;1.70;;
21833;SDS011;11079;51.092;3.458;2023-03-25T04:04:26;10.75;;;1.95;;
21833;SDS011;11079;51.092;3.458;2023-03-25T04:06:56;7.97;;;1.95;;
21833;SDS011;11079;51.092;3.458;2023-03-25T04:09:46;4.75;;;1.45;;
21833;SDS011;11079;51.092;3.458;2023-03-25T04:12:28;7.47;;;1.65;;
21833;SDS011;11079;51.092;3.458;2023-03-25T04:15:00;9.18;;;1.98;;
21833;SDS011;11079;51.092;3.458;2023-03-25T04:17:28;10.13;;;2.35;;
21833;SDS011;11079;51.092;3.458;2023-03-25T04:19:56;5.18;;;1.70;;
21833;SDS011;11079;51.092;3.458;2023-03-25T04:22:22;8.45;;;1.75;;
21833;SDS011;11079;51.092;3.458;2023-03-25T04:24:49;8.45;;;2.13;;
21833;SDS011;11079;51.092;3.458;2023-03-25T04:27:16;13.65;;;2.20;;
21833;SDS011;11079;51.092;3.458;2023-03-25T04:29:43;11.77;;;2.05;;
21833;SDS011;11079;51.092;3.458;2023-03-25T04:32:11;12.48;;;2.40;;
21833;SDS011;11079;51.092;3.458;2023-03-25T04:34:37;8.43;;;2.05;;
21833;SDS011;11079;51.092;3.458;2023-03-25T04:37:03;10.30;;;2.10;;
21833;SDS011;11079;51.092;3.458;2023-03-25T04:39:29;10.70;;;2.28;;
21833;SDS011;11079;51.092;3.458;2023-03-25T04:41:56;10.13;;;2.25;;
21833;SDS011;11079;51.092;3.458;2023-03-25T04:44:29;14.27;;;2.08;;
21833;SDS011;11079;51.092;3.458;2023-03-25T04:47:02;11.68;;;2.88;;
21833;SDS011;11079;51.092;3.458;2023-03-25T04:49:30;9.18;;;2.78;;
21833;SDS011;11079;51.092;3.458;2023-03-25T04:51:55;17.42;;;2.83;;
21833;SDS011;11079;51.092;3.458;2023-03-25T04:54:22;12.88;;;2.58;;
21833;SDS011;11079;51.092;3.458;2023-03-25T04:56:48;10.88;;;2.55;;
21833;SDS011;11079;51.092;3.458;2023-03-25T04:59:15;13.25;;;3.17;;
21833;SDS011;11079;51.092;3.458;2023-03-25T05:01:42;14.30;;;2.78;;
21833;SDS011;11079;51.092;3.458;2023-03-25T05:04:10;12.88;;;2.25;;
21833;SDS011;11079;51.092;3.458;2023-03-25T05:06:42;15.88;;;2.40;;
21833;SDS011;11079;51.092;3.458;2023-03-25T05:09:14;18.05;;;3.22;;
21833;SDS011;11079;51.092;3.458;2023-03-25T05:11:43;19.08;;;3.95;;
21833;SDS011;11079;51.092;3.458;2023-03-25T05:14:09;18.08;;;2.83;;
21833;SDS011;11079;51.092;3.458;2023-03-25T05:16:36;13.25;;;3.08;;
21833;SDS011;11079;51.092;3.458;2023-03-25T05:19:02;17.70;;;3.05;;
21833;SDS011;11079;51.092;3.458;2023-03-25T05:21:28;14.05;;;2.60;;
21833;SDS011;11079;51.092;3.458;2023-03-25T05:23:55;19.88;;;3.40;;
21833;SDS011;11079;51.092;3.458;2023-03-25T05:26:22;16.48;;;3.35;;
21833;SDS011;11079;51.092;3.458;2023-03-25T05:28:48;11.10;;;2.88;;
21833;SDS011;11079;51.092;3.458;2023-03-25T05:31:15;12.82;;;3.05;;
21833;SDS011;11079;51.092;3.458;2023-03-25T05:33:41;8.07;;;2.50;;
21833;SDS011;11079;51.092;3.458;2023-03-25T05:38:37;16.05;;;2.55;;
21833;SDS011;11079;51.092;3.458;2023-03-25T05:41:06;12.23;;;2.83;;
21833;SDS011;11079;51.092;3.458;2023-03-25T05:43:35;23.85;;;4.03;;
21833;SDS011;11079;51.092;3.458;2023-03-25T05:46:01;24.23;;;4.53;;
21833;SDS011;11079;51.092;3.458;2023-03-25T05:48:29;14.23;;;2.85;;
21833;SDS011;11079;51.092;3.458;2023-03-25T05:50:56;14.10;;;2.70;;
21833;SDS011;11079;51.092;3.458;2023-03-25T05:53:27;18.58;;;3.83;;
21833;SDS011;11079;51.092;3.458;2023-03-25T05:55:55;22.50;;;4.07;;
21833;SDS011;11079;51.092;3.458;2023-03-25T05:58:20;16.05;;;2.65;;
21833;SDS011;11079;51.092;3.458;2023-03-25T06:00:46;15.40;;;3.45;;
21833;SDS011;11079;51.092;3.458;2023-03-25T06:03:12;17.85;;;3.40;;
21833;SDS011;11079;51.092;3.458;2023-03-25T06:05:38;15.63;;;2.88;;
21833;SDS011;11079;51.092;3.458;2023-03-25T06:08:03;17.38;;;3.15;;
21833;SDS011;11079;51.092;3.458;2023-03-25T06:10:29;17.98;;;3.40;;
21833;SDS011;11079;51.092;3.458;2023-03-25T06:12:55;22.10;;;3.55;;
21833;SDS011;11079;51.092;3.458;2023-03-25T06:15:21;23.80;;;5.38;;
21833;SDS011;11079;51.092;3.458;2023-03-25T06:17:53;16.77;;;3.67;;
21833;SDS011;11079;51.092;3.458;2023-03-25T06:20:22;13.88;;;3.13;;
21833;SDS011;11079;51.092;3.458;2023-03-25T06:22:48;16.13;;;2.80;;
21833;SDS011;11079;51.092;3.458;2023-03-25T06:25:15;19.05;;;3.03;;
21833;SDS011;11079;51.092;3.458;2023-03-25T06:27:42;15.93;;;3.33;;
21833;SDS011;11079;51.092;3.458;2023-03-25T06:30:12;25.85;;;3.88;;
21833;SDS011;11079;51.092;3.458;2023-03-25T06:32:40;19.35;;;5.63;;
21833;SDS011;11079;51.092;3.458;2023-03-25T06:35:06;15.45;;;4.13;;
21833;SDS011;11079;51.092;3.458;2023-03-25T06:37:34;15.23;;;3.00;;
21833;SDS011;11079;51.092;3.458;2023-03-25T06:40:00;14.18;;;3.10;;
21833;SDS011;11079;51.092;3.458;2023-03-25T06:42:26;15.68;;;3.42;;
21833;SDS011;11079;51.092;3.458;2023-03-25T06:44:52;18.45;;;3.90;;
21833;SDS011;11079;51.092;3.458;2023-03-25T06:47:19;18.27;;;3.15;;
21833;SDS011;11079;51.092;3.458;2023-03-25T06:49:45;19.08;;;4.25;;
21833;SDS011;11079;51.092;3.458;2023-03-25T06:52:11;20.92;;;5.25;;
21833;SDS011;11079;51.092;3.458;2023-03-25T06:54:37;21.83;;;4.18;;
21833;SDS011;11079;51.092;3.458;2023-03-25T06:57:03;21.35;;;3.40;;
21833;SDS011;11079;51.092;3.458;2023-03-25T06:59:29;14.02;;;4.05;;
21833;SDS011;11079;51.092;3.458;2023-03-25T07:01:54;24.02;;;4.00;;
21833;SDS011;11079;51.092;3.458;2023-03-25T07:04:20;26.92;;;4.47;;
21833;SDS011;11079;51.092;3.458;2023-03-25T07:06:46;18.73;;;3.42;;
21833;SDS011;11079;51.092;3.458;2023-03-25T07:09:11;20.40;;;3.85;;
21833;SDS011;11079;51.092;3.458;2023-03-25T07:11:37;17.33;;;3.90;;
21833;SDS011;11079;51.092;3.458;2023-03-25T07:14:03;24.38;;;4.00;;
21833;SDS011;11079;51.092;3.458;2023-03-25T07:16:28;18.75;;;4.20;;
21833;SDS011;11079;51.092;3.458;2023-03-25T07:18:55;17.90;;;3.75;;
21833;SDS011;11079;51.092;3.458;2023-03-25T07:21:21;23.95;;;4.65;;
21833;SDS011;11079;51.092;3.458;2023-03-25T07:23:47;16.80;;;3.53;;
21833;SDS011;11079;51.092;3.458;2023-03-25T07:26:12;22.13;;;4.60;;
21833;SDS011;11079;51.092;3.458;2023-03-25T07:28:38;19.98;;;4.93;;
21833;SDS011;11079;51.092;3.458;2023-03-25T07:31:08;14.43;;;4.13;;
21833;SDS011;11079;51.092;3.458;2023-03-25T07:33:36;22.15;;;4.43;;
21833;SDS011;11079;51.092;3.458;2023-03-25T07:36:03;22.10;;;3.83;;
21833;SDS011;11079;51.092;3.458;2023-03-25T07:38:30;17.95;;;3.35;;
21833;SDS011;11079;51.092;3.458;2023-03-25T07:40:56;21.77;;;4.05;;
21833;SDS011;11079;51.092;3.458;2023-03-25T07:43:22;21.60;;;4.20;;
21833;SDS011;11079;51.092;3.458;2023-03-25T07:45:48;18.48;;;4.75;;
21833;SDS011;11079;51.092;3.458;2023-03-25T07:48:13;17.45;;;3.72;;
21833;SDS011;11079;51.092;3.458;2023-03-25T07:50:40;18.35;;;4.38;;
21833;SDS011;11079;51.092;3.458;2023-03-25T07:53:10;14.85;;;3.95;;
21833;SDS011;11079;51.092;3.458;2023-03-25T07:55:38;24.20;;;4.82;;
21833;SDS011;11079;51.092;3.458;2023-03-25T07:58:04;19.40;;;3.90;;
21833;SDS011;11079;51.092;3.458;2023-03-25T08:00:38;15.07;;;4.07;;
21833;SDS011;11079;51.092;3.458;2023-03-25T08:03:03;15.88;;;3.67;;
21833;SDS011;11079;51.092;3.458;2023-03-25T08:05:29;22.27;;;3.95;;
21833;SDS011;11079;51.092;3.458;2023-03-25T08:07:55;18.27;;;4.05;;
21833;SDS011;11079;51.092;3.458;2023-03-25T08:10:24;18.52;;;3.58;;
21833;SDS011;11079;51.092;3.458;2023-03-25T08:12:50;21.48;;;3.97;;
21833;SDS011;11079;51.092;3.458;2023-03-25T08:15:17;21.30;;;3.85;;
21833;SDS011;11079;51.092;3.458;2023-03-25T08:17:44;17.65;;;3.97;;
21833;SDS011;11079;51.092;3.458;2023-03-25T08:20:10;19.80;;;4.07;;
21833;SDS011;11079;51.092;3.458;2023-03-25T08:22:36;20.60;;;4.38;;
21833;SDS011;11079;51.092;3.458;2023-03-25T08:25:01;21.02;;;4.00;;
21833;SDS011;11079;51.092;3.458;2023-03-25T08:27:27;15.80;;;3.53;;
21833;SDS011;11079;51.092;3.458;2023-03-25T08:29:53;18.58;;;4.57;;
21833;SDS011;11079;51.092;3.458;2023-03-25T08:32:24;21.27;;;4.18;;
21833;SDS011;11079;51.092;3.458;2023-03-25T08:34:51;19.15;;;4.13;;
21833;SDS011;11079;51.092;3.458;2023-03-25T08:37:18;19.90;;;4.03;;
21833;SDS011;11079;51.092;3.458;2023-03-25T08:39:43;20.77;;;4.75;;
21833;SDS011;11079;51.092;3.458;2023-03-25T08:42:10;13.40;;;3.00;;
21833;SDS011;11079;51.092;3.458;2023-03-25T08:44:37;21.52;;;4.05;;
21833;SDS011;11079;51.092;3.458;2023-03-25T08:47:03;17.60;;;3.97;;
21833;SDS011;11079;51.092;3.458;2023-03-25T08:49:30;20.38;;;3.88;;
21833;SDS011;11079;51.092;3.458;2023-03-25T08:51:55;19.00;;;4.38;;
21833;SDS011;11079;51.092;3.458;2023-03-25T08:54:22;14.07;;;3.42;;
21833;SDS011;11079;51.092;3.458;2023-03-25T08:56:51;20.85;;;4.47;;
21833;SDS011;11079;51.092;3.458;2023-03-25T08:59:17;23.67;;;4.15;;
21833;SDS011;11079;51.092;3.458;2023-03-25T09:01:43;21.92;;;4.22;;
21833;SDS011;11079;51.092;3.458;2023-03-25T09:04:11;17.88;;;3.83;;
21833;SDS011;11079;51.092;3.458;2023-03-25T09:06:37;13.98;;;4.00;;
21833;SDS011;11079;51.092;3.458;2023-03-25T09:09:03;21.55;;;3.90;;
21833;SDS011;11079;51.092;3.458;2023-03-25T09:11:33;16.48;;;3.45;;
21833;SDS011;11079;51.092;3.458;2023-03-25T09:13:59;15.88;;;3.63;;
21833;SDS011;11079;51.092;3.458;2023-03-25T09:16:27;13.43;;;2.90;;
21833;SDS011;11079;51.092;3.458;2023-03-25T09:18:54;10.30;;;2.90;;
21833;SDS011;11079;51.092;3.458;2023-03-25T09:21:20;32.50;;;5.85;;
21833;SDS011;11079;51.092;3.458;2023-03-25T09:23:45;16.63;;;3.45;;
21833;SDS011;11079;51.092;3.458;2023-03-25T09:26:11;16.08;;;3.25;;
21833;SDS011;11079;51.092;3.458;2023-03-25T09:28:36;15.77;;;2.92;;
21833;SDS011;11079;51.092;3.458;2023-03-25T09:31:02;16.15;;;3.92;;
21833;SDS011;11079;51.092;3.458;2023-03-25T09:33:27;17.67;;;3.53;;
21833;SDS011;11079;51.092;3.458;2023-03-25T09:35:53;17.33;;;3.67;;
21833;SDS011;11079;51.092;3.458;2023-03-25T09:38:19;17.83;;;4.28;;
21833;SDS011;11079;51.092;3.458;2023-03-25T09:40:45;13.90;;;3.10;;
21833;SDS011;11079;51.092;3.458;2023-03-25T09:43:27;16.17;;;4.53;;
21833;SDS011;11079;51.092;3.458;2023-03-25T09:46:15;16.35;;;2.78;;
21833;SDS011;11079;51.092;3.458;2023-03-25T09:48:42;18.02;;;3.55;;
21833;SDS011;11079;51.092;3.458;2023-03-25T09:51:29;16.67;;;3.20;;
21833;SDS011;11079;51.092;3.458;2023-03-25T09:54:04;16.38;;;3.75;;
21833;SDS011;11079;51.092;3.458;2023-03-25T09:56:53;18.20;;;4.00;;
21833;SDS011;11079;51.092;3.458;2023-03-25T09:59:31;16.75;;;3.45;;
21833;SDS011;11079;51.092;3.458;2023-03-25T10:02:54;16.52;;;3.30;;
21833;SDS011;11079;51.092;3.458;2023-03-25T10:05:17;18.65;;;4.05;;
21833;SDS011;11079;51.092;3.458;2023-03-25T10:13:47;20.70;;;3.33;;
21833;SDS011;11079;51.092;3.458;2023-03-25T10:16:39;15.40;;;3.50;;
21833;SDS011;11079;51.092;3.458;2023-03-25T10:24:35;13.63;;;2.88;;
21833;SDS011;11079;51.092;3.458;2023-03-25T10:27:33;15.05;;;3.38;;
21833;SDS011;11079;51.092;3.458;2023-03-25T10:30:14;16.20;;;3.13;;
21833;SDS011;11079;51.092;3.458;2023-03-25T10:35:23;22.52;;;3.25;;
21833;SDS011;11079;51.092;3.458;2023-03-25T10:37:57;12.50;;;2.47;;
21833;SDS011;11079;51.092;3.458;2023-03-25T10:40:35;9.80;;;2.72;;
21833;SDS011;11079;51.092;3.458;2023-03-25T10:45:47;13.93;;;4.00;;
21833;SDS011;11079;51.092;3.458;2023-03-25T10:48:23;17.85;;;2.67;;
21833;SDS011;11079;51.092;3.458;2023-03-25T10:50:52;14.32;;;4.00;;
21833;SDS011;11079;51.092;3.458;2023-03-25T10:53:29;17.88;;;3.28;;
21833;SDS011;11079;51.092;3.458;2023-03-25T10:56:00;12.25;;;3.10;;
21833;SDS011;11079;51.092;3.458;2023-03-25T10:58:29;14.95;;;2.90;;
21833;SDS011;11079;51.092;3.458;2023-03-25T11:00:55;14.20;;;3.28;;
21833;SDS011;11079;51.092;3.458;2023-03-25T11:03:27;11.40;;;3.25;;
21833;SDS011;11079;51.092;3.458;2023-03-25T11:05:57;14.73;;;3.50;;
21833;SDS011;11079;51.092;3.458;2023-03-25T11:08:23;20.08;;;4.68;;
21833;SDS011;11079;51.092;3.458;2023-03-25T11:10:50;13.38;;;2.47;;
21833;SDS011;11079;51.092;3.458;2023-03-25T11:13:28;10.02;;;2.33;;
21833;SDS011;11079;51.092;3.458;2023-03-25T11:15:56;10.20;;;3.33;;
21833;SDS011;11079;51.092;3.458;2023-03-25T11:21:06;12.70;;;2.45;;
21833;SDS011;11079;51.092;3.458;2023-03-25T11:23:45;13.27;;;2.47;;
21833;SDS011;11079;51.092;3.458;2023-03-25T11:26:23;12.15;;;2.67;;
21833;SDS011;11079;51.092;3.458;2023-03-25T11:28:55;10.75;;;2.25;;
21833;SDS011;11079;51.092;3.458;2023-03-25T11:31:26;13.02;;;2.92;;
21833;SDS011;11079;51.092;3.458;2023-03-25T11:34:05;14.25;;;2.67;;
21833;SDS011;11079;51.092;3.458;2023-03-25T11:36:35;10.15;;;2.40;;
21833;SDS011;11079;51.092;3.458;2023-03-25T11:39:10;13.77;;;2.92;;
21833;SDS011;11079;51.092;3.458;2023-03-25T11:41:42;14.18;;;3.70;;
21833;SDS011;11079;51.092;3.458;2023-03-25T11:44:14;12.63;;;2.80;;
21833;SDS011;11079;51.092;3.458;2023-03-25T11:47:04;12.15;;;2.63;;
21833;SDS011;11079;51.092;3.458;2023-03-25T11:49:35;13.68;;;2.95;;
21833;SDS011;11079;51.092;3.458;2023-03-25T11:52:05;13.55;;;2.60;;
21833;SDS011;11079;51.092;3.458;2023-03-25T11:54:33;13.88;;;3.08;;
21833;SDS011;11079;51.092;3.458;2023-03-25T11:57:04;16.75;;;3.67;;
21833;SDS011;11079;51.092;3.458;2023-03-25T11:59:36;11.43;;;2.47;;
21833;SDS011;11079;51.092;3.458;2023-03-25T12:05:00;14.07;;;3.50;;
21833;SDS011;11079;51.092;3.458;2023-03-25T12:07:28;13.90;;;3.40;;
21833;SDS011;11079;51.092;3.458;2023-03-25T12:09:57;11.60;;;2.58;;
21833;SDS011;11079;51.092;3.458;2023-03-25T12:12:32;19.45;;;4.03;;
21833;SDS011;11079;51.092;3.458;2023-03-25T12:21:12;11.88;;;2.90;;
21833;SDS011;11079;51.092;3.458;2023-03-25T12:59:29;11.23;;;3.58;;
21833;SDS011;11079;51.092;3.458;2023-03-25T13:05:29;12.30;;;2.85;;
21833;SDS011;11079;51.092;3.458;2023-03-25T13:10:42;14.00;;;2.75;;
21833;SDS011;11079;51.092;3.458;2023-03-25T13:13:15;13.70;;;3.00;;
21833;SDS011;11079;51.092;3.458;2023-03-25T13:15:59;15.77;;;3.25;;
21833;SDS011;11079;51.092;3.458;2023-03-25T13:18:32;16.65;;;3.28;;
21833;SDS011;11079;51.092;3.458;2023-03-25T13:23:34;10.48;;;2.53;;
21833;SDS011;11079;51.092;3.458;2023-03-25T13:29:16;14.95;;;3.28;;
21833;SDS011;11079;51.092;3.458;2023-03-25T13:31:26;11.48;;;3.33;;
21833;SDS011;11079;51.092;3.458;2023-03-25T13:34:00;10.93;;;2.30;;
21833;SDS011;11079;51.092;3.458;2023-03-25T13:39:51;12.23;;;2.58;;
21833;SDS011;11079;51.092;3.458;2023-03-25T13:42:20;15.48;;;3.33;;
21833;SDS011;11079;51.092;3.458;2023-03-25T13:44:56;16.27;;;3.35;;
21833;SDS011;11079;51.092;3.458;2023-03-25T13:47:25;12.57;;;2.80;;
21833;SDS011;11079;51.092;3.458;2023-03-25T13:50:07;11.65;;;3.08;;
21833;SDS011;11079;51.092;3.458;2023-03-25T13:52:43;11.45;;;2.83;;
21833;SDS011;11079;51.092;3.458;2023-03-25T13:55:18;13.00;;;2.95;;
21833;SDS011;11079;51.092;3.458;2023-03-25T14:12:15;11.05;;;2.03;;
21833;SDS011;11079;51.092;3.458;2023-03-25T14:14:53;14.18;;;2.72;;
21833;SDS011;11079;51.092;3.458;2023-03-25T14:17:37;11.77;;;2.50;;
21833;SDS011;11079;51.092;3.458;2023-03-25T14:20:06;11.52;;;2.70;;
21833;SDS011;11079;51.092;3.458;2023-03-25T14:22:37;13.75;;;3.15;;
21833;SDS011;11079;51.092;3.458;2023-03-25T14:25:11;9.43;;;2.17;;
21833;SDS011;11079;51.092;3.458;2023-03-25T14:27:58;18.95;;;3.53;;
21833;SDS011;11079;51.092;3.458;2023-03-25T14:30:26;13.43;;;2.83;;
21833;SDS011;11079;51.092;3.458;2023-03-25T14:32:53;13.65;;;2.78;;
21833;SDS011;11079;51.092;3.458;2023-03-25T14:53:58;18.88;;;3.45;;
21833;SDS011;11079;51.092;3.458;2023-03-25T14:59:29;10.60;;;2.45;;
21833;SDS011;11079;51.092;3.458;2023-03-25T15:02:04;18.10;;;2.75;;
21833;SDS011;11079;51.092;3.458;2023-03-25T15:10:42;13.23;;;2.60;;
21833;SDS011;11079;51.092;3.458;2023-03-25T15:13:29;15.20;;;3.17;;
21833;SDS011;11079;51.092;3.458;2023-03-25T15:21:19;15.00;;;3.03;;
21833;SDS011;11079;51.092;3.458;2023-03-25T15:24:02;15.55;;;4.40;;
21833;SDS011;11079;51.092;3.458;2023-03-25T15:26:37;11.48;;;2.55;;
21833;SDS011;11079;51.092;3.458;2023-03-25T15:34:36;15.20;;;3.05;;
21833;SDS011;11079;51.092;3.458;2023-03-25T15:46:25;17.13;;;2.90;;
21833;SDS011;11079;51.092;3.458;2023-03-25T15:57:12;17.83;;;4.05;;
21833;SDS011;11079;51.092;3.458;2023-03-25T16:02:31;13.45;;;3.22;;
21833;SDS011;11079;51.092;3.458;2023-03-25T16:05:01;18.15;;;3.40;;
21833;SDS011;11079;51.092;3.458;2023-03-25T16:07:28;20.17;;;4.13;;
21833;SDS011;11079;51.092;3.458;2023-03-25T16:09:55;16.33;;;3.92;;
21833;SDS011;11079;51.092;3.458;2023-03-25T16:12:41;25.17;;;4.50;;
21833;SDS011;11079;51.092;3.458;2023-03-25T16:15:12;17.77;;;3.50;;
21833;SDS011;11079;51.092;3.458;2023-03-25T16:17:44;18.67;;;5.25;;
21833;SDS011;11079;51.092;3.458;2023-03-25T16:20:14;12.60;;;3.13;;
21833;SDS011;11079;51.092;3.458;2023-03-25T16:22:42;23.42;;;3.65;;
21833;SDS011;11079;51.092;3.458;2023-03-25T16:25:15;14.85;;;3.22;;
21833;SDS011;11079;51.092;3.458;2023-03-25T16:27:49;21.38;;;4.60;;
21833;SDS011;11079;51.092;3.458;2023-03-25T16:30:32;19.67;;;3.60;;
21833;SDS011;11079;51.092;3.458;2023-03-25T16:35:34;20.38;;;4.18;;
21833;SDS011;11079;51.092;3.458;2023-03-25T16:38:32;18.75;;;4.10;;
21833;SDS011;11079;51.092;3.458;2023-03-25T16:41:19;18.98;;;4.00;;
21833;SDS011;11079;51.092;3.458;2023-03-25T16:43:44;19.35;;;4.40;;
21833;SDS011;11079;51.092;3.458;2023-03-25T16:46:10;22.45;;;3.95;;
21833;SDS011;11079;51.092;3.458;2023-03-25T16:48:42;18.38;;;3.88;;
21833;SDS011;11079;51.092;3.458;2023-03-25T16:51:15;25.23;;;5.15;;
21833;SDS011;11079;51.092;3.458;2023-03-25T16:53:45;21.63;;;4.28;;
21833;SDS011;11079;51.092;3.458;2023-03-25T16:58:52;13.45;;;3.58;;
21833;SDS011;11079;51.092;3.458;2023-03-25T17:01:22;13.85;;;4.03;;
21833;SDS011;11079;51.092;3.458;2023-03-25T17:03:49;21.13;;;3.67;;
21833;SDS011;11079;51.092;3.458;2023-03-25T17:06:20;18.00;;;3.60;;
21833;SDS011;11079;51.092;3.458;2023-03-25T17:08:53;20.67;;;3.65;;
21833;SDS011;11079;51.092;3.458;2023-03-25T17:11:21;23.85;;;4.20;;
21833;SDS011;11079;51.092;3.458;2023-03-25T17:13:50;20.65;;;4.53;;
21833;SDS011;11079;51.092;3.458;2023-03-25T17:16:24;19.13;;;4.65;;
21833;SDS011;11079;51.092;3.458;2023-03-25T17:18:53;16.60;;;4.10;;
21833;SDS011;11079;51.092;3.458;2023-03-25T17:21:21;20.25;;;4.18;;
21833;SDS011;11079;51.092;3.458;2023-03-25T17:23:52;21.27;;;3.97;;
21833;SDS011;11079;51.092;3.458;2023-03-25T17:26:21;20.23;;;4.30;;
21833;SDS011;11079;51.092;3.458;2023-03-25T17:31:23;17.33;;;4.10;;
21833;SDS011;11079;51.092;3.458;2023-03-25T17:33:53;20.85;;;5.28;;
21833;SDS011;11079;51.092;3.458;2023-03-25T17:36:25;27.45;;;5.32;;
21833;SDS011;11079;51.092;3.458;2023-03-25T17:38:53;23.60;;;5.03;;
21833;SDS011;11079;51.092;3.458;2023-03-25T17:41:21;16.52;;;4.13;;
21833;SDS011;11079;51.092;3.458;2023-03-25T17:43:53;21.25;;;4.47;;
21833;SDS011;11079;51.092;3.458;2023-03-25T17:46:23;21.42;;;4.57;;
21833;SDS011;11079;51.092;3.458;2023-03-25T17:48:52;23.50;;;5.03;;
21833;SDS011;11079;51.092;3.458;2023-03-25T17:51:21;33.88;;;5.80;;
21833;SDS011;11079;51.092;3.458;2023-03-25T17:53:51;35.25;;;6.35;;
21833;SDS011;11079;51.092;3.458;2023-03-25T17:56:24;26.20;;;4.82;;
21833;SDS011;11079;51.092;3.458;2023-03-25T17:58:53;27.13;;;6.20;;
21833;SDS011;11079;51.092;3.458;2023-03-25T18:01:25;26.98;;;5.80;;
21833;SDS011;11079;51.092;3.458;2023-03-25T18:03:51;29.75;;;6.78;;
21833;SDS011;11079;51.092;3.458;2023-03-25T18:06:18;20.50;;;4.28;;